Time;durP1;ratioP1;P1;durP2;ratioP2;P2;SDS_P1;SDS_P2;PMS_P1;PMS_P2;Temp;Humidity;BMP_temperature;BMP_pressure;BME280_temperature;BME280_humidity;BME280_pressure;Samples;Min_cycle;Max_cycle;Signal;HPM_P1;HPM_P2
2021/04/19 00:02:20;;;;;;;35.37;20.33;;;8.70;78.70;;;;;;4993688;28;20037;-62
2021/04/19 00:04:46;;;;;;;39.53;21.27;;;8.60;78.40;;;;;;5011349;28;20038;-62
2021/04/19 00:07:12;;;;;;;37.63;20.83;;;8.50;78.60;;;;;;5009982;28;20038;-62
2021/04/19 00:09:38;;;;;;;41.47;21.97;;;8.40;78.80;;;;;;5010865;28;20540;-62
2021/04/19 00:12:05;;;;;;;38.53;23.07;;;8.30;78.90;;;;;;4993174;28;20042;-62
2021/04/19 00:14:30;;;;;;;39.57;21.83;;;8.20;79.00;;;;;;4997081;28;20092;-62
2021/04/19 00:16:56;;;;;;;34.63;21.20;;;8.20;79.40;;;;;;4996843;28;20037;-62
2021/04/19 00:19:22;;;;;;;35.67;21.47;;;8.10;79.60;;;;;;4980325;28;20048;-62
2021/04/19 00:21:47;;;;;;;42.20;23.23;;;8.10;79.90;;;;;;5014337;28;20064;-61
2021/04/19 00:24:13;;;;;;;36.30;21.93;;;8.00;79.90;;;;;;4996804;28;20045;-63
2021/04/19 00:26:39;;;;;;;33.50;21.13;;;8.00;80.00;;;;;;4997065;28;20076;-62
2021/04/19 00:29:05;;;;;;;41.07;23.57;;;7.90;80.20;;;;;;4996581;28;20475;-62
2021/04/19 00:31:31;;;;;;;50.17;25.40;;;7.90;80.40;;;;;;4996383;28;20048;-62
2021/04/19 00:33:57;;;;;;;42.20;23.50;;;7.90;80.70;;;;;;5014454;28;20037;-62
2021/04/19 00:36:22;;;;;;;45.07;24.83;;;7.80;80.60;;;;;;4996893;28;20030;-62
2021/04/19 00:38:48;;;;;;;44.70;24.70;;;7.80;80.60;;;;;;5013065;28;20046;-64
2021/04/19 00:41:14;;;;;;;46.20;26.40;;;7.80;80.70;;;;;;4996937;28;20111;-64
2021/04/19 00:43:40;;;;;;;47.07;25.80;;;7.70;80.80;;;;;;5013881;28;20068;-62
2021/04/19 00:46:06;;;;;;;44.80;26.33;;;7.70;81.10;;;;;;5014560;28;20038;-62
2021/04/19 00:48:34;;;;;;;44.43;25.57;;;7.70;81.70;;;;;;4996312;28;20038;-62
2021/04/19 00:50:59;;;;;;;41.73;26.20;;;7.70;81.80;;;;;;5013854;28;20116;-62
2021/04/19 00:53:26;;;;;;;45.47;25.27;;;7.70;81.60;;;;;;4996660;28;20062;-62
2021/04/19 00:55:54;;;;;;;43.33;24.87;;;7.70;81.40;;;;;;5013535;28;20034;-63
2021/04/19 00:58:24;;;;;;;43.07;26.53;;;7.70;81.30;;;;;;5013335;28;20564;-68
2021/04/19 01:00:50;;;;;;;46.95;26.17;;;7.60;81.30;;;;;;5013801;28;20061;-69
2021/04/19 01:03:16;;;;;;;47.20;26.43;;;7.60;81.30;;;;;;4995955;28;20490;-68
2021/04/19 01:05:44;;;;;;;45.03;27.90;;;7.50;81.30;;;;;;5013954;28;20081;-68
2021/04/19 01:08:10;;;;;;;48.60;27.40;;;7.50;81.40;;;;;;4995146;28;20026;-67
2021/04/19 01:10:37;;;;;;;46.77;24.97;;;7.40;81.40;;;;;;4996601;28;20041;-68
2021/04/19 01:13:05;;;;;;;47.53;27.17;;;7.30;81.40;;;;;;5014045;28;20033;-68
2021/04/19 01:15:32;;;;;;;44.07;25.97;;;7.30;81.60;;;;;;4995567;28;20090;-68
2021/04/19 01:17:58;;;;;;;47.97;28.30;;;7.20;81.90;;;;;;4979601;28;20030;-68
2021/04/19 01:20:26;;;;;;;48.10;27.67;;;7.20;82.10;;;;;;4995557;28;20042;-68
2021/04/19 01:22:52;;;;;;;49.50;28.73;;;7.10;82.30;;;;;;5013217;28;20049;-68
2021/04/19 01:25:23;;;;;;;46.47;27.23;;;7.10;82.40;;;;;;4994981;28;20045;-68
2021/04/19 01:27:51;;;;;;;48.63;27.80;;;7.10;82.60;;;;;;5012641;28;20034;-68
2021/04/19 01:30:18;;;;;;;51.10;28.03;;;7.00;82.50;;;;;;4995799;28;20046;-68
2021/04/19 01:32:44;;;;;;;48.67;28.67;;;7.00;82.60;;;;;;5013830;28;20117;-69
2021/04/19 01:35:11;;;;;;;44.47;26.30;;;7.00;82.60;;;;;;5014034;28;20025;-69
2021/04/19 01:37:38;;;;;;;50.53;26.90;;;6.90;82.60;;;;;;4995690;28;20045;-68
2021/04/19 01:40:06;;;;;;;50.07;29.00;;;6.90;82.60;;;;;;5012773;28;20045;-68
2021/04/19 01:42:32;;;;;;;55.60;29.80;;;6.80;82.80;;;;;;4995735;28;20048;-68
2021/04/19 01:44:58;;;;;;;51.13;30.37;;;6.80;83.00;;;;;;4995609;28;20034;-68
2021/04/19 01:47:25;;;;;;;47.03;26.03;;;6.70;83.10;;;;;;4995076;28;20521;-69
2021/04/19 01:49:52;;;;;;;49.80;27.90;;;6.70;83.30;;;;;;4995543;28;20037;-68
2021/04/19 01:52:17;;;;;;;53.73;28.37;;;6.60;83.30;;;;;;4995125;28;20045;-69
2021/04/19 01:54:43;;;;;;;56.33;30.43;;;6.60;83.80;;;;;;5013358;28;20041;-69
2021/04/19 01:57:09;;;;;;;49.90;29.27;;;6.60;83.60;;;;;;5011910;28;20076;-67
2021/04/19 01:59:37;;;;;;;48.27;28.40;;;6.60;84.10;;;;;;4979158;28;20052;-67
2021/04/19 02:02:30;;;;;;;49.70;28.17;;;6.50;84.20;;;;;;4979812;28;20124;-68
2021/04/19 02:05:02;;;;;;;54.30;29.27;;;6.50;83.80;;;;;;5012204;28;20042;-67
2021/04/19 02:07:52;;;;;;;55.07;29.47;;;6.50;83.80;;;;;;4994622;28;20042;-67
2021/04/19 02:10:44;;;;;;;51.65;28.55;;;6.40;83.80;;;;;;4978841;28;20069;-67
2021/04/19 02:13:22;;;;;;;48.43;26.80;;;6.40;83.90;;;;;;4994543;28;20029;-67
2021/04/19 02:16:07;;;;;;;51.83;29.20;;;6.30;83.80;;;;;;4994829;28;20060;-67
2021/04/19 02:19:35;;;;;;;50.00;29.13;;;6.30;84.00;;;;;;5010343;28;20034;-68
2021/04/19 02:22:07;;;;;;;52.83;29.03;;;6.30;84.30;;;;;;4897465;29;20389;-68
2021/04/19 02:24:38;;;;;;;53.20;28.77;;;6.30;85.00;;;;;;4897905;29;20522;-68
2021/04/19 02:27:11;;;;;;;46.57;26.07;;;6.30;85.80;;;;;;4965703;28;20037;-69
2021/04/19 02:29:42;;;;;;;39.87;25.80;;;6.40;86.10;;;;;;4994760;28;20038;-68
2021/04/19 02:32:15;;;;;;;38.90;25.10;;;6.50;86.10;;;;;;4994157;28;21081;-68
2021/04/19 02:34:44;;;;;;;39.57;25.43;;;6.60;86.80;;;;;;4979150;28;20041;-68
2021/04/19 02:37:13;;;;;;;39.63;25.27;;;6.70;86.60;;;;;;4993887;28;21538;-69
2021/04/19 02:39:47;;;;;;;40.37;25.93;;;6.80;86.70;;;;;;4994567;28;20108;-68
2021/04/19 02:42:15;;;;;;;42.20;25.00;;;6.90;86.60;;;;;;5011561;28;20121;-68
2021/04/19 02:44:51;;;;;;;41.40;24.98;;;7.00;86.30;;;;;;4994567;28;20122;-68
2021/04/19 02:47:34;;;;;;;38.08;23.42;;;7.00;86.20;;;;;;5011371;28;20038;-67
2021/04/19 02:50:13;;;;;;;35.27;23.00;;;7.00;86.00;;;;;;4994330;28;20462;-68
2021/04/19 02:52:40;;;;;;;38.15;23.83;;;7.10;86.00;;;;;;4994009;28;20553;-68
2021/04/19 02:55:07;;;;;;;39.93;24.37;;;7.10;86.20;;;;;;5011856;28;20034;-68
2021/04/19 02:57:38;;;;;;;41.30;24.10;;;7.10;86.10;;;;;;4977132;28;20037;-68
2021/04/19 03:00:05;;;;;;;41.07;23.97;;;7.10;86.10;;;;;;4977846;28;20038;-68
2021/04/19 03:02:33;;;;;;;40.90;23.23;;;7.10;86.40;;;;;;4993974;28;20560;-68
2021/04/19 03:05:01;;;;;;;38.43;23.93;;;7.20;86.20;;;;;;4993955;28;20061;-68
2021/04/19 03:07:33;;;;;;;33.70;23.13;;;7.10;86.60;;;;;;4977471;28;20092;-68
2021/04/19 03:10:06;;;;;;;43.43;24.47;;;7.10;87.00;;;;;;4993413;28;20038;-68
2021/04/19 03:12:36;;;;;;;39.97;24.00;;;7.20;86.90;;;;;;4977790;28;20453;-69
2021/04/19 03:15:07;;;;;;;39.30;25.03;;;7.20;87.10;;;;;;4977718;28;20281;-68
2021/04/19 03:17:35;;;;;;;37.17;23.20;;;7.20;87.10;;;;;;4961749;28;20036;-69
2021/04/19 03:20:24;;;;;;;36.73;22.50;;;7.30;87.40;;;;;;4993341;28;20486;-68
2021/04/19 03:23:11;;;;;;;44.17;24.23;;;7.40;87.60;;;;;;4993530;28;20068;-67
2021/04/19 03:25:45;;;;;;;37.37;23.40;;;7.50;87.20;;;;;;4993722;28;20104;-68
2021/04/19 03:28:16;;;;;;;42.73;25.17;;;7.50;87.00;;;;;;4992711;28;20038;-68
2021/04/19 03:30:42;;;;;;;49.63;26.57;;;7.50;87.30;;;;;;5011233;28;20402;-68
2021/04/19 03:33:13;;;;;;;52.67;28.33;;;7.50;87.20;;;;;;4978964;28;20526;-68
2021/04/19 03:35:41;;;;;;;57.30;28.77;;;7.50;86.70;;;;;;4993321;28;20056;-68
2021/04/19 03:38:14;;;;;;;49.20;27.48;;;7.50;87.00;;;;;;5010566;28;20038;-67
2021/04/19 03:40:41;;;;;;;;;;;7.50;87.30;;;;;;4993738;28;20060;-68
2021/04/19 03:43:16;;;;;;;50.38;27.40;;;7.50;86.90;;;;;;4993581;28;19964;-68
2021/04/19 03:45:55;;;;;;;;;;;7.50;87.00;;;;;;4993874;28;20054;-68
2021/04/19 03:48:44;;;;;;;56.90;29.03;;;7.50;87.20;;;;;;5013119;28;19917;-67
2021/04/19 03:51:22;;;;;;;55.73;29.50;;;7.50;87.50;;;;;;4982904;28;20120;-68
2021/04/19 03:53:54;;;;;;;;;;;7.50;87.60;;;;;;4997705;28;20117;-68
2021/04/19 03:56:24;;;;;;;52.90;29.73;;;7.60;88.00;;;;;;4997513;28;19913;-68
2021/04/19 03:59:02;;;;;;;52.97;30.57;;;7.60;87.60;;;;;;5013881;28;20034;-67
2021/04/19 04:01:36;;;;;;;58.80;31.40;;;7.60;87.60;;;;;;4997299;28;20563;-68
2021/04/19 04:04:02;;;;;;;59.27;31.20;;;7.60;87.40;;;;;;4996720;28;20034;-67
2021/04/19 04:06:35;;;;;;;54.87;30.13;;;7.60;87.50;;;;;;4998450;28;20498;-67
2021/04/19 04:09:04;;;;;;;57.30;30.30;;;7.60;87.40;;;;;;4997597;28;20044;-68
2021/04/19 04:11:31;;;;;;;58.27;30.90;;;7.60;87.60;;;;;;4999038;28;20038;-69
2021/04/19 04:14:08;;;;;;;58.00;31.73;;;7.60;87.30;;;;;;4998257;28;20501;-66
2021/04/19 04:16:39;;;;;;;54.87;29.97;;;7.60;87.80;;;;;;4999135;28;20486;-68
2021/04/19 04:19:08;;;;;;;57.00;28.87;;;7.60;87.80;;;;;;5015528;28;20394;-67
2021/04/19 04:21:44;;;;;;;57.80;29.87;;;7.50;87.70;;;;;;4998534;28;20120;-67
2021/04/19 04:24:21;;;;;;;53.50;30.00;;;7.50;87.80;;;;;;4999145;28;20049;-67
2021/04/19 04:26:47;;;;;;;49.87;28.37;;;7.50;88.10;;;;;;4998008;28;20033;-67
2021/04/19 04:29:13;;;;;;;52.60;29.47;;;7.60;87.80;;;;;;4979971;28;20109;-68
2021/04/19 04:31:43;;;;;;;48.25;28.98;;;7.50;87.60;;;;;;4996821;28;20037;-68
2021/04/19 04:34:13;;;;;;;49.23;26.80;;;7.50;87.60;;;;;;4980852;28;20037;-67
2021/04/19 04:36:41;;;;;;;45.80;26.20;;;7.60;87.90;;;;;;4996309;28;20042;-67
2021/04/19 04:39:12;;;;;;;51.87;25.90;;;7.50;87.90;;;;;;4996518;28;20037;-68
2021/04/19 04:41:45;;;;;;;45.93;26.33;;;7.60;88.10;;;;;;4997149;28;20042;-67
2021/04/19 04:44:24;;;;;;;45.80;25.57;;;7.50;88.00;;;;;;4996734;28;20037;-68
2021/04/19 04:47:18;;;;;;;40.67;22.70;;;7.60;87.70;;;;;;4995619;28;20092;-67
2021/04/19 04:49:55;;;;;;;42.27;23.07;;;7.60;87.60;;;;;;4980122;28;20061;-67
2021/04/19 04:52:21;;;;;;;53.30;24.27;;;7.50;87.40;;;;;;5014022;28;20034;-68
2021/04/19 04:54:49;;;;;;;49.87;24.07;;;7.50;87.10;;;;;;4996271;28;20092;-67
2021/04/19 04:57:22;;;;;;;40.90;24.93;;;7.50;87.40;;;;;;4995263;28;20033;-68
2021/04/19 04:59:50;;;;;;;42.53;24.13;;;7.50;87.90;;;;;;5013941;28;20500;-68
2021/04/19 05:02:20;;;;;;;39.97;24.03;;;7.50;88.20;;;;;;4979311;28;20406;-67
2021/04/19 05:04:47;;;;;;;42.97;23.45;;;7.60;88.40;;;;;;4980265;28;20092;-67
2021/04/19 05:07:13;;;;;;;38.60;23.13;;;7.60;88.30;;;;;;5012808;28;20033;-66
2021/04/19 05:09:39;;;;;;;40.90;20.10;;;7.70;88.10;;;;;;5013561;28;20034;-67
2021/04/19 05:12:05;;;;;;;30.90;19.23;;;7.70;88.00;;;;;;5012716;28;20395;-66
2021/04/19 05:14:32;;;;;;;34.30;20.47;;;7.70;87.80;;;;;;5013426;28;20048;-67
2021/04/19 05:16:58;;;;;;;41.33;20.57;;;7.70;87.60;;;;;;5012981;28;20508;-67
2021/04/19 05:19:23;;;;;;;35.23;19.10;;;7.70;87.70;;;;;;4995211;28;20124;-66
2021/04/19 05:21:49;;;;;;;35.47;19.87;;;7.70;87.50;;;;;;5016999;28;20403;-67
2021/04/19 05:24:15;;;;;;;42.87;20.53;;;7.70;87.40;;;;;;5005056;28;20407;-67
2021/04/19 05:26:40;;;;;;;42.40;20.63;;;7.60;87.50;;;;;;5005891;28;20056;-67
2021/04/19 05:29:06;;;;;;;50.23;20.90;;;7.60;87.10;;;;;;5021323;28;20608;-67
2021/04/19 05:31:32;;;;;;;43.17;22.17;;;7.60;87.30;;;;;;5029663;28;20043;-67
2021/04/19 05:33:58;;;;;;;63.17;20.20;;;7.60;87.70;;;;;;5032759;28;20040;-67
2021/04/19 05:36:25;;;;;;;55.57;20.90;;;7.60;87.90;;;;;;5032599;28;20391;-67
2021/04/19 05:38:52;;;;;;;39.23;20.97;;;7.60;87.90;;;;;;4991807;28;20121;-67
2021/04/19 05:41:19;;;;;;;51.17;19.30;;;7.60;88.20;;;;;;4994422;28;20033;-67
2021/04/19 05:43:46;;;;;;;39.20;18.50;;;7.70;88.70;;;;;;5011652;28;20406;-68
2021/04/19 05:46:14;;;;;;;37.50;21.07;;;7.80;88.00;;;;;;5012429;28;20040;-67
2021/04/19 05:48:40;;;;;;;41.57;20.97;;;7.80;88.00;;;;;;5012395;28;20400;-67
2021/04/19 05:51:16;;;;;;;34.20;20.40;;;7.90;88.30;;;;;;5012563;28;20030;-67
2021/04/19 05:53:42;;;;;;;42.73;20.73;;;7.90;88.40;;;;;;5012928;28;20124;-67
2021/04/19 05:56:17;;;;;;;44.90;20.33;;;8.00;88.00;;;;;;5012461;28;20113;-66
2021/04/19 05:58:50;;;;;;;45.93;20.83;;;8.10;88.00;;;;;;5012263;28;20393;-67
2021/04/19 06:01:22;;;;;;;38.83;21.23;;;8.10;88.50;;;;;;5012126;28;20068;-66
2021/04/19 06:04:12;;;;;;;35.90;21.10;;;8.20;89.00;;;;;;5012876;28;20025;-67
2021/04/19 06:06:53;;;;;;;35.65;20.05;;;8.30;88.20;;;;;;5012341;28;20030;-67
2021/04/19 06:09:39;;;;;;;42.60;22.83;;;8.30;88.20;;;;;;4994356;28;20045;-67
2021/04/19 06:12:51;;;;;;;37.37;20.30;;;8.40;88.50;;;;;;5000860;28;20088;-67
2021/04/19 06:15:22;;;;;;;37.50;20.70;;;8.60;88.60;;;;;;4994907;28;20508;-68
2021/04/19 06:17:51;;;;;;;34.47;20.63;;;8.70;88.30;;;;;;4993442;28;20041;-67
2021/04/19 06:20:21;;;;;;;33.80;19.60;;;8.80;88.30;;;;;;4978660;28;20030;-68
2021/04/19 06:22:51;;;;;;;36.22;19.05;;;8.80;88.80;;;;;;4994865;28;20054;-68
2021/04/19 06:25:19;;;;;;;40.35;20.02;;;8.90;89.00;;;;;;5012438;28;20092;-67
2021/04/19 06:27:45;;;;;;;33.47;20.37;;;9.00;87.90;;;;;;5011259;28;20037;-66
2021/04/19 06:30:16;;;;;;;33.63;20.80;;;9.00;87.80;;;;;;5011711;28;20548;-67
2021/04/19 06:32:43;;;;;;;35.37;21.40;;;9.10;88.00;;;;;;5012082;28;20034;-67
2021/04/19 06:35:11;;;;;;;34.57;20.07;;;9.10;88.20;;;;;;4994222;28;20061;-67
2021/04/19 06:37:36;;;;;;;31.97;19.57;;;9.20;88.40;;;;;;4993989;28;20030;-67
2021/04/19 06:40:05;;;;;;;32.10;19.23;;;9.30;88.10;;;;;;5011309;28;20454;-67
2021/04/19 06:42:31;;;;;;;37.33;20.80;;;9.40;88.10;;;;;;4994374;28;20052;-67
2021/04/19 06:45:00;;;;;;;33.37;20.40;;;9.50;87.70;;;;;;4994432;28;20049;-67
2021/04/19 06:47:26;;;;;;;33.47;20.70;;;9.50;87.90;;;;;;4993389;28;20037;-67
2021/04/19 06:49:54;;;;;;;33.47;20.33;;;9.60;88.20;;;;;;4994577;28;20085;-68
2021/04/19 06:52:20;;;;;;;32.53;20.47;;;9.70;88.20;;;;;;5011397;28;20505;-67
2021/04/19 06:54:46;;;;;;;29.47;18.83;;;9.80;87.10;;;;;;4994022;28;20117;-67
2021/04/19 06:57:15;;;;;;;30.33;18.90;;;9.80;87.00;;;;;;4961415;28;20569;-67
2021/04/19 06:59:42;;;;;;;36.93;20.03;;;9.80;86.40;;;;;;4993613;28;20049;-67
2021/04/19 07:02:20;;;;;;;35.70;19.80;;;9.80;86.20;;;;;;4994065;28;20069;-67
2021/04/19 07:04:51;;;;;;;41.20;20.30;;;9.80;86.80;;;;;;5011661;28;20034;-67
2021/04/19 07:07:23;;;;;;;34.35;19.83;;;9.80;85.70;;;;;;5010991;28;20038;-67
2021/04/19 07:09:53;;;;;;;35.97;19.70;;;9.80;85.20;;;;;;5011206;28;20045;-68
2021/04/19 07:12:21;;;;;;;31.70;19.20;;;9.70;85.10;;;;;;4993799;28;20038;-67
2021/04/19 07:14:49;;;;;;;34.03;19.73;;;9.70;85.40;;;;;;5010858;28;20117;-66
2021/04/19 07:17:16;;;;;;;29.60;18.13;;;9.70;85.50;;;;;;4977446;28;20042;-67
2021/04/19 07:19:42;;;;;;;29.67;18.97;;;9.80;85.90;;;;;;4993706;28;20412;-67
2021/04/19 07:22:10;;;;;;;31.07;19.17;;;9.80;86.10;;;;;;5009949;28;20045;-67
2021/04/19 07:24:37;;;;;;;30.63;18.95;;;9.90;86.50;;;;;;4993891;28;20038;-67
2021/04/19 07:27:04;;;;;;;28.75;18.13;;;10.00;86.70;;;;;;4992885;28;20036;-67
2021/04/19 07:29:30;;;;;;;28.57;17.53;;;10.10;86.90;;;;;;5011247;28;20405;-67
2021/04/19 07:31:58;;;;;;;29.33;17.92;;;10.30;86.80;;;;;;5011377;28;20495;-67
2021/04/19 07:34:25;;;;;;;26.92;17.52;;;10.40;86.00;;;;;;4993294;28;20060;-67
2021/04/19 07:36:53;;;;;;;30.05;18.10;;;10.50;86.30;;;;;;4993686;28;20125;-67
2021/04/19 07:39:21;;;;;;;30.52;17.70;;;10.60;86.00;;;;;;5010504;28;20095;-67
2021/04/19 07:41:54;;;;;;;28.02;16.88;;;10.70;85.90;;;;;;4993586;28;20125;-67
2021/04/19 07:44:39;;;;;;;27.73;16.88;;;10.80;85.20;;;;;;5010661;28;20042;-63
2021/04/19 07:47:25;;;;;;;27.90;17.42;;;10.80;84.60;;;;;;5010867;28;20040;-62
2021/04/19 07:50:14;;;;;;;24.83;16.42;;;10.80;84.30;;;;;;5010913;28;20051;-62
2021/04/19 07:53:00;;;;;;;24.08;15.60;;;10.80;84.70;;;;;;5010653;28;20095;-63
2021/04/19 07:55:37;;;;;;;25.65;16.85;;;10.90;84.90;;;;;;4977189;28;20117;-62
2021/04/19 07:58:08;;;;;;;24.15;15.95;;;11.10;84.50;;;;;;5010251;28;20034;-64
2021/04/19 08:00:39;;;;;;;25.52;16.52;;;11.20;84.50;;;;;;5011109;28;20433;-63
2021/04/19 08:03:08;;;;;;;26.20;17.38;;;11.20;82.80;;;;;;5010441;28;20049;-62
2021/04/19 08:05:36;;;;;;;28.00;17.50;;;11.20;82.40;;;;;;5011028;28;20149;-62
2021/04/19 08:08:03;;;;;;;27.67;17.85;;;11.20;82.80;;;;;;4992394;28;20076;-66
2021/04/19 08:10:30;;;;;;;25.02;16.92;;;11.20;82.50;;;;;;4993490;28;20038;-66
2021/04/19 08:13:22;;;;;;;25.80;17.52;;;11.30;82.70;;;;;;5010924;28;20113;-67
2021/04/19 08:15:48;;;;;;;26.92;17.33;;;11.40;83.10;;;;;;4988292;28;20042;-66
2021/04/19 08:18:19;;;;;;;29.90;18.58;;;11.60;83.40;;;;;;4992814;28;20804;-67
2021/04/19 08:20:52;;;;;;;30.58;18.65;;;11.70;83.00;;;;;;5010355;28;20042;-67
2021/04/19 08:23:19;;;;;;;27.98;19.05;;;11.90;82.00;;;;;;4961129;28;20387;-67
2021/04/19 08:25:51;;;;;;;26.23;17.42;;;12.00;81.70;;;;;;4993045;28;20109;-66
2021/04/19 08:28:22;;;;;;;27.77;19.00;;;12.10;81.50;;;;;;4976187;28;20033;-67
2021/04/19 08:30:51;;;;;;;28.50;19.23;;;12.10;81.40;;;;;;4993392;28;20121;-68
2021/04/19 08:33:18;;;;;;;24.80;17.80;;;12.20;81.20;;;;;;5011070;28;20049;-67
2021/04/19 08:35:47;;;;;;;24.65;17.13;;;12.30;81.20;;;;;;5014280;28;20026;-67
2021/04/19 08:38:18;;;;;;;22.58;16.33;;;12.40;81.30;;;;;;4979329;28;20509;-67
2021/04/19 08:40:44;;;;;;;23.45;16.13;;;12.70;82.10;;;;;;5014355;28;20041;-67
2021/04/19 08:43:15;;;;;;;23.08;15.68;;;13.10;81.90;;;;;;4996204;28;20141;-67
2021/04/19 08:45:42;;;;;;;23.50;16.65;;;13.30;80.00;;;;;;5014343;28;20049;-68
2021/04/19 08:48:10;;;;;;;26.42;17.05;;;13.30;79.50;;;;;;5013731;28;20077;-67
2021/04/19 08:50:37;;;;;;;21.67;15.35;;;13.30;78.90;;;;;;4996118;28;20097;-64
2021/04/19 08:53:06;;;;;;;22.00;14.82;;;13.40;79.00;;;;;;4996452;28;20049;-62
2021/04/19 08:55:32;;;;;;;24.13;16.15;;;13.70;79.30;;;;;;5012829;28;20042;-62
2021/04/19 08:58:03;;;;;;;21.15;14.95;;;14.00;79.20;;;;;;4995827;28;20394;-62
2021/04/19 09:00:30;;;;;;;22.23;15.57;;;14.50;79.50;;;;;;4996530;28;20465;-62
2021/04/19 09:02:59;;;;;;;20.35;14.65;;;15.10;78.90;;;;;;5013207;28;20046;-65
2021/04/19 09:05:26;;;;;;;21.25;15.77;;;15.50;76.90;;;;;;4996302;28;20044;-66
2021/04/19 09:08:03;;;;;;;20.40;15.10;;;15.70;76.00;;;;;;4994934;28;20049;-65
2021/04/19 09:10:50;;;;;;;22.02;15.10;;;16.00;75.60;;;;;;4995811;28;20088;-66
2021/04/19 09:13:44;;;;;;;20.67;14.18;;;16.60;74.50;;;;;;4995623;28;20524;-66
2021/04/19 09:16:18;;;;;;;18.38;13.95;;;17.80;73.80;;;;;;4979408;28;20054;-66
2021/04/19 09:19:04;;;;;;;18.40;13.63;;;19.70;73.90;;;;;;4995147;28;20446;-69
2021/04/19 09:21:41;;;;;;;17.08;13.63;;;22.30;70.30;;;;;;5013013;28;20045;-67
2021/04/19 09:24:13;;;;;;;18.25;14.30;;;24.20;65.20;;;;;;4979334;28;20068;-66
2021/04/19 09:26:56;;;;;;;17.10;13.70;;;25.30;58.90;;;;;;4995823;28;20489;-66
2021/04/19 09:29:25;;;;;;;19.20;13.90;;;24.60;54.40;;;;;;4962663;28;20041;-66
2021/04/19 09:32:00;;;;;;;18.02;13.60;;;23.60;53.00;;;;;;5013153;28;20100;-66
2021/04/19 09:34:44;;;;;;;17.65;14.23;;;23.10;54.70;;;;;;5012689;28;20038;-66
2021/04/19 09:37:14;;;;;;;18.35;15.13;;;23.90;54.40;;;;;;4994916;28;20042;-65
2021/04/19 09:40:05;;;;;;;17.95;15.07;;;24.80;50.50;;;;;;4994869;28;20046;-66
2021/04/19 09:42:57;;;;;;;18.05;14.68;;;25.80;49.90;;;;;;5012211;28;20050;-67
2021/04/19 09:45:41;;;;;;;17.20;14.20;;;26.90;49.00;;;;;;5011993;28;20041;-66
2021/04/19 09:48:27;;;;;;;17.95;14.05;;;27.40;46.70;;;;;;5011907;28;20033;-66
2021/04/19 09:50:59;;;;;;;17.45;14.60;;;28.20;45.70;;;;;;4972535;28;20129;-68
2021/04/19 09:53:27;;;;;;;16.05;13.93;;;28.30;42.10;;;;;;4995507;28;20060;-69
2021/04/19 09:55:53;;;;;;;18.13;14.55;;;28.10;40.90;;;;;;4995378;28;20037;-70
2021/04/19 09:58:20;;;;;;;19.80;15.75;;;27.60;40.50;;;;;;4993988;28;20034;-69
2021/04/19 10:00:57;;;;;;;18.02;14.68;;;27.20;40.40;;;;;;4994979;28;20399;-69
2021/04/19 10:03:23;;;;;;;17.58;14.82;;;27.40;40.70;;;;;;4978249;28;20057;-69
2021/04/19 10:05:51;;;;;;;16.70;13.95;;;28.40;41.50;;;;;;4994556;28;20084;-71
2021/04/19 10:08:19;;;;;;;17.70;14.68;;;29.60;40.70;;;;;;5011451;28;20034;-70
2021/04/19 10:10:52;;;;;;;15.90;14.10;;;30.70;39.00;;;;;;4978608;28;20034;-71
2021/04/19 10:13:38;;;;;;;15.48;13.70;;;30.70;35.90;;;;;;4994972;28;20041;-65
2021/04/19 10:16:12;;;;;;;16.35;14.02;;;29.30;33.80;;;;;;5011720;28;20044;-65
2021/04/19 10:18:43;;;;;;;16.75;14.40;;;27.70;34.50;;;;;;5011771;28;20064;-69
2021/04/19 10:21:22;;;;;;;16.95;13.98;;;27.20;36.70;;;;;;4993997;28;20429;-70
2021/04/19 10:23:47;;;;;;;14.75;12.88;;;27.40;37.70;;;;;;4978372;28;20026;-70
2021/04/19 10:26:13;;;;;;;15.00;13.02;;;28.30;37.90;;;;;;4977887;28;20561;-69
2021/04/19 10:28:42;;;;;;;14.60;12.77;;;29.50;37.80;;;;;;4993934;28;20034;-69
2021/04/19 10:31:10;;;;;;;14.63;13.07;;;30.70;36.20;;;;;;5012150;28;20510;-70
2021/04/19 10:33:36;;;;;;;15.20;12.45;;;31.90;35.30;;;;;;4993986;28;20059;-70
2021/04/19 10:36:24;;;;;;;13.38;11.93;;;32.70;34.10;;;;;;5011945;28;20417;-70
2021/04/19 10:38:55;;;;;;;13.13;11.73;;;33.70;33.50;;;;;;4993527;28;20508;-69
2021/04/19 10:41:34;;;;;;;13.60;12.20;;;34.60;32.50;;;;;;5011737;28;20049;-70
2021/04/19 10:44:02;;;;;;;11.98;10.63;;;34.50;31.20;;;;;;5011400;28;20100;-70
2021/04/19 10:46:39;;;;;;;13.10;10.45;;;34.50;31.20;;;;;;4993117;28;20042;-71
2021/04/19 10:49:07;;;;;;;12.18;10.88;;;35.10;30.90;;;;;;4993532;28;20033;-70
2021/04/19 10:51:35;;;;;;;11.48;10.27;;;35.70;30.60;;;;;;4977803;28;20054;-71
2021/04/19 10:54:09;;;;;;;11.60;10.40;;;36.20;29.50;;;;;;4977564;28;20038;-71
2021/04/19 10:56:38;;;;;;;11.48;10.00;;;36.40;28.90;;;;;;5011614;28;20072;-71
2021/04/19 10:59:08;;;;;;;12.05;10.70;;;36.50;28.80;;;;;;5010560;28;20033;-71
2021/04/19 11:01:38;;;;;;;11.00;9.77;;;36.60;28.30;;;;;;5011407;28;20057;-71
2021/04/19 11:04:06;;;;;;;10.52;9.43;;;36.50;27.90;;;;;;4993241;28;20037;-70
2021/04/19 11:06:41;;;;;;;10.25;9.05;;;36.00;27.20;;;;;;5011376;28;20077;-70
2021/04/19 11:09:08;;;;;;;8.75;7.43;;;35.70;27.60;;;;;;5010363;28;20553;-70
2021/04/19 11:11:37;;;;;;;9.30;7.32;;;35.80;27.30;;;;;;4993699;28;20042;-66
2021/04/19 11:14:10;;;;;;;9.18;7.38;;;36.20;27.50;;;;;;5011269;28;20073;-67
2021/04/19 11:16:47;;;;;;;8.20;6.70;;;36.90;27.20;;;;;;5008449;28;20118;-67
2021/04/19 11:19:26;;;;;;;9.90;6.70;;;37.30;26.80;;;;;;4993090;28;20548;-66
2021/04/19 11:21:52;;;;;;;8.93;6.53;;;37.70;26.50;;;;;;5010728;28;20046;-65
2021/04/19 11:24:17;;;;;;;9.52;6.38;;;38.00;26.20;;;;;;4993357;28;20084;-67
2021/04/19 11:26:43;;;;;;;7.85;6.25;;;38.20;25.80;;;;;;5010652;28;20049;-67
2021/04/19 11:29:09;;;;;;;7.70;5.70;;;38.00;25.40;;;;;;5010186;28;20100;-68
2021/04/19 11:31:49;;;;;;;7.47;5.57;;;37.60;25.60;;;;;;5010962;28;20117;-68
2021/04/19 11:34:17;;;;;;;7.43;5.60;;;37.40;25.30;;;;;;4993902;28;20033;-67
2021/04/19 11:36:44;;;;;;;7.95;5.38;;;36.90;25.30;;;;;;5011047;28;20045;-66
2021/04/19 11:39:19;;;;;;;7.20;5.43;;;36.80;25.30;;;;;;4976107;28;20034;-65
2021/04/19 11:41:46;;;;;;;6.78;5.30;;;36.80;25.40;;;;;;4993339;28;20045;-67
2021/04/19 11:44:12;;;;;;;6.45;4.60;;;37.20;25.50;;;;;;5011754;28;20069;-68
2021/04/19 11:46:48;;;;;;;7.28;4.47;;;37.40;25.30;;;;;;4993031;28;20072;-65
2021/04/19 11:49:19;;;;;;;6.40;4.43;;;37.50;25.10;;;;;;5010568;28;20052;-65
2021/04/19 11:51:45;;;;;;;5.57;3.67;;;37.20;24.40;;;;;;5010795;28;20096;-65
2021/04/19 11:54:12;;;;;;;5.68;3.70;;;37.10;24.50;;;;;;4993350;28;20038;-70
2021/04/19 11:56:38;;;;;;;5.72;3.40;;;37.20;24.50;;;;;;5010524;28;20034;-70
2021/04/19 11:59:04;;;;;;;6.18;3.72;;;36.70;24.00;;;;;;5010389;28;20050;-70
2021/04/19 12:01:30;;;;;;;5.07;3.33;;;36.20;24.40;;;;;;5010532;28;20042;-70
2021/04/19 12:03:56;;;;;;;5.45;3.80;;;35.80;24.50;;;;;;5009017;28;20041;-71
2021/04/19 12:06:24;;;;;;;5.63;3.70;;;35.10;24.40;;;;;;5010488;28;20589;-70
2021/04/19 12:08:51;;;;;;;6.10;4.00;;;34.50;24.80;;;;;;5010692;28;20030;-70
2021/04/19 12:11:20;;;;;;;6.47;3.83;;;34.00;25.10;;;;;;5013901;28;20117;-71
2021/04/19 12:13:46;;;;;;;6.70;4.32;;;33.30;25.30;;;;;;4996672;28;20042;-70
2021/04/19 12:16:12;;;;;;;7.13;4.50;;;32.60;25.70;;;;;;5014174;28;20400;-70
2021/04/19 12:18:38;;;;;;;8.15;4.70;;;32.10;25.40;;;;;;5013958;28;20506;-70
2021/04/19 12:21:17;;;;;;;6.30;4.10;;;31.30;25.60;;;;;;5013943;28;20038;-71
2021/04/19 12:23:49;;;;;;;6.72;4.00;;;30.60;26.30;;;;;;4981340;28;20030;-63
2021/04/19 12:26:15;;;;;;;7.90;4.95;;;30.10;26.50;;;;;;5013540;28;20529;-63
2021/04/19 12:28:41;;;;;;;7.38;4.15;;;29.50;26.60;;;;;;5013828;28;20040;-63
2021/04/19 12:31:07;;;;;;;5.70;3.70;;;28.70;26.80;;;;;;5014013;28;20117;-64
2021/04/19 12:33:33;;;;;;;7.05;3.85;;;28.60;28.30;;;;;;5013165;28;20390;-64
2021/04/19 12:35:59;;;;;;;6.18;3.80;;;29.30;28.20;;;;;;5013541;28;20026;-64
2021/04/19 12:38:25;;;;;;;6.53;4.43;;;29.70;27.80;;;;;;4978982;28;20246;-64
2021/04/19 12:40:51;;;;;;;7.90;4.93;;;29.80;27.20;;;;;;5014150;28;20113;-64
2021/04/19 12:43:18;;;;;;;7.75;5.53;;;29.80;27.20;;;;;;5013792;28;20052;-63
2021/04/19 12:45:44;;;;;;;8.32;5.72;;;29.80;27.40;;;;;;4995904;28;20047;-64
2021/04/19 12:48:11;;;;;;;8.57;5.45;;;29.60;27.10;;;;;;5013285;28;20034;-65
2021/04/19 12:50:38;;;;;;;8.25;4.78;;;29.60;27.50;;;;;;5013364;28;20038;-64
2021/04/19 12:53:08;;;;;;;9.23;5.68;;;29.50;27.80;;;;;;4996272;28;20121;-64
2021/04/19 12:55:53;;;;;;;10.25;6.20;;;29.20;27.00;;;;;;5013264;28;20048;-63